createdAt,value
2023-03-11T00:03:39.523Z,6.20
2023-03-11T00:08:41.871Z,6.20
2023-03-11T00:13:43.924Z,6.10
2023-03-11T00:18:46.174Z,6.30
2023-03-11T00:23:48.248Z,6.40
2023-03-11T00:28:50.309Z,6.40
2023-03-11T00:33:53.102Z,5.80
2023-03-11T00:38:55.206Z,6.40
2023-03-11T00:43:57.249Z,6.50
2023-03-11T00:48:59.314Z,6.50
2023-03-11T00:54:01.626Z,6.40
2023-03-11T00:59:04.323Z,6.30
2023-03-11T01:04:06.811Z,6.30
2023-03-11T01:09:08.952Z,5.90
2023-03-11T01:14:11.630Z,5.90
2023-03-11T01:19:13.974Z,5.70
2023-03-11T01:24:15.983Z,5.80
2023-03-11T01:29:18.004Z,5.70
2023-03-11T01:34:20.088Z,5.70
2023-03-11T01:39:22.159Z,5.80
2023-03-11T01:44:24.510Z,5.50
2023-03-11T01:49:27.786Z,5.40
2023-03-11T01:54:31.912Z,5.50
2023-03-11T01:59:37.559Z,5.30
2023-03-11T02:04:40.365Z,5.20
2023-03-11T02:09:42.424Z,5.40
2023-03-11T02:14:49.228Z,5.30
2023-03-11T02:19:51.219Z,5.40
2023-03-11T02:25:00.890Z,5.10
2023-03-11T02:30:04.344Z,5.10
2023-03-11T02:35:07.800Z,5.00
2023-03-11T02:40:22.601Z,5.00
2023-03-11T02:45:26.162Z,4.80
2023-03-11T02:50:28.941Z,4.80
2023-03-11T02:55:31.233Z,4.80
2023-03-11T03:00:35.085Z,4.70
2023-03-11T03:05:37.764Z,4.80
2023-03-11T03:10:40.061Z,4.70
2023-03-11T03:15:42.411Z,4.50
2023-03-11T03:20:44.459Z,4.60
2023-03-11T03:25:46.922Z,4.50
2023-03-11T03:30:49.037Z,4.50
2023-03-11T03:35:51.205Z,4.90
2023-03-11T03:40:53.621Z,4.90
2023-03-11T03:45:57.182Z,4.90
2023-03-11T03:51:04.430Z,4.70
2023-03-11T03:56:09.334Z,4.70
2023-03-11T04:01:12.297Z,4.70
2023-03-11T04:06:14.728Z,4.70
2023-03-11T04:16:20.488Z,4.80
2023-03-11T04:21:23.106Z,5.00
2023-03-11T04:26:25.622Z,5.00
2023-03-11T04:31:27.750Z,4.90
2023-03-11T04:36:30.820Z,5.20
2023-03-11T04:41:33.192Z,5.00
2023-03-11T04:46:35.940Z,5.10
2023-03-11T04:51:39.358Z,5.30
2023-03-11T04:56:41.904Z,5.10
2023-03-11T05:01:44.118Z,5.20
2023-03-11T05:06:47.202Z,5.10
2023-03-11T05:11:49.270Z,5.10
2023-03-11T05:16:52.398Z,5.10
2023-03-11T05:21:54.577Z,5.10
2023-03-11T05:26:57.659Z,4.90
2023-03-11T05:32:00.768Z,4.90
2023-03-11T05:37:03.955Z,4.90
2023-03-11T05:42:06.668Z,4.90
2023-03-11T05:47:09.403Z,4.70
2023-03-11T05:52:11.776Z,4.90
2023-03-11T05:57:13.868Z,5.00
2023-03-11T06:02:15.937Z,4.90
2023-03-11T06:07:18.569Z,4.80
2023-03-11T06:12:21.118Z,4.70
2023-03-11T06:17:24.366Z,4.70
2023-03-11T06:22:27.222Z,4.60
2023-03-11T06:27:29.732Z,4.70
2023-03-11T06:32:32.247Z,4.70
2023-03-11T06:37:36.037Z,4.70
2023-03-11T06:42:38.283Z,4.70
2023-03-11T06:47:41.591Z,4.70
2023-03-11T06:57:46.854Z,4.80
2023-03-11T07:02:49.226Z,4.80
2023-03-11T07:07:53.463Z,4.80
2023-03-11T07:12:55.941Z,4.90
2023-03-11T07:17:59.094Z,5.20
2023-03-11T07:23:01.993Z,5.20
2023-03-11T07:28:04.111Z,5.60
2023-03-11T07:33:06.226Z,5.50
2023-03-11T07:38:08.437Z,5.70
2023-03-11T07:43:10.802Z,5.70
2023-03-11T07:48:12.911Z,5.80
2023-03-11T07:53:17.001Z,6.00
2023-03-11T07:58:19.272Z,6.00
2023-03-11T08:03:21.340Z,6.10
2023-03-11T08:08:23.397Z,6.30
2023-03-11T08:13:25.445Z,6.50
2023-03-11T08:18:27.771Z,6.60
2023-03-11T08:23:29.796Z,6.70
2023-03-11T08:28:32.122Z,6.90
2023-03-11T08:33:34.132Z,7.10
2023-03-11T08:38:36.160Z,7.10
2023-03-11T08:43:38.426Z,7.20
2023-03-11T08:48:40.604Z,7.50
2023-03-11T08:53:42.624Z,7.40
2023-03-11T08:58:44.833Z,7.50
2023-03-11T09:03:46.898Z,7.90
2023-03-11T09:08:48.991Z,7.70
2023-03-11T09:13:50.991Z,8.10
2023-03-11T09:18:53.065Z,7.80
2023-03-11T09:23:55.129Z,7.90
2023-03-11T09:28:57.160Z,8.10
2023-03-11T09:33:59.174Z,8.10
2023-03-11T09:39:01.129Z,8.30
2023-03-11T09:44:03.081Z,8.40
2023-03-11T09:49:23.558Z,8.40
2023-03-11T09:54:28.865Z,8.40
2023-03-11T09:59:31.917Z,8.60
2023-03-11T10:04:45.375Z,8.70
2023-03-11T10:09:54.817Z,8.80
2023-03-11T10:15:23.585Z,9.00
2023-03-11T10:20:28.367Z,9.10
2023-03-11T10:25:35.229Z,9.20
2023-03-11T10:30:57.523Z,9.20
2023-03-11T10:36:03.533Z,9.60
2023-03-11T10:41:11.585Z,9.30
2023-03-11T10:46:18.761Z,9.20
2023-03-11T10:51:26.707Z,9.10
2023-03-11T10:56:28.784Z,9.20
2023-03-11T11:01:30.907Z,9.40
2023-03-11T11:06:36.048Z,9.50
2023-03-11T11:11:39.533Z,9.50
2023-03-11T11:21:52.380Z,9.80
2023-03-11T11:27:14.104Z,9.80
2023-03-11T11:32:18.964Z,10.20
2023-03-11T11:37:22.601Z,10.40
2023-03-11T11:42:26.382Z,10.70
2023-03-11T11:47:33.013Z,11.00
2023-03-11T11:52:37.114Z,11.20
2023-03-11T12:03:02.841Z,11.50
2023-03-11T12:08:08.027Z,11.60
2023-03-11T12:13:26.985Z,11.90
2023-03-11T12:18:49.681Z,12.10
2023-03-11T12:24:10.507Z,12.50
2023-03-11T12:29:20.131Z,12.40
2023-03-11T12:34:22.470Z,12.60
2023-03-11T12:39:28.629Z,12.90
2023-03-11T12:44:30.719Z,13.20
2023-03-11T12:49:36.577Z,13.60
2023-03-11T12:54:40.080Z,13.50
2023-03-11T13:00:00.336Z,13.50
2023-03-11T13:05:12.752Z,13.50
2023-03-11T13:10:16.658Z,13.60
2023-03-11T13:15:18.675Z,13.90
2023-03-11T13:20:56.133Z,14.10
2023-03-11T13:26:16.667Z,14.40
2023-03-11T13:31:41.769Z,14.10
2023-03-11T13:37:02.327Z,13.80
2023-03-11T13:42:13.455Z,13.60
2023-03-11T13:47:16.768Z,13.30
2023-03-11T13:52:24.301Z,12.80
2023-03-11T13:57:31.436Z,13.00
2023-03-11T14:02:33.443Z,12.90
2023-03-11T14:07:37.489Z,12.60
2023-03-11T14:12:39.574Z,12.60
2023-03-11T14:17:41.586Z,12.80
2023-03-11T14:22:44.857Z,12.70
2023-03-11T14:27:50.203Z,13.20
2023-03-11T14:32:57.014Z,13.10
2023-03-11T14:37:59.487Z,13.10
2023-03-11T14:43:03.557Z,13.00
2023-03-11T14:48:09.269Z,12.80
2023-03-11T14:53:20.129Z,12.70
2023-03-11T14:58:31.379Z,12.50
2023-03-11T15:03:35.310Z,12.40
2023-03-11T15:08:42.377Z,12.30
2023-03-11T15:13:47.308Z,12.20
2023-03-11T15:18:49.401Z,12.10
2023-03-11T15:23:53.084Z,11.90
2023-03-11T15:28:59.746Z,11.90
2023-03-11T15:34:20.721Z,12.00
2023-03-11T15:39:29.265Z,12.20
2023-03-11T15:44:31.351Z,12.20
2023-03-11T15:49:33.719Z,12.10
2023-03-11T15:54:36.083Z,11.90
2023-03-11T15:59:38.394Z,11.90
2023-03-11T16:04:40.473Z,12.10
2023-03-11T16:09:42.570Z,11.70
2023-03-11T16:14:44.990Z,11.60
2023-03-11T16:19:49.539Z,11.40
2023-03-11T16:24:53.007Z,11.40
2023-03-11T16:29:55.351Z,11.30
2023-03-11T16:34:57.364Z,11.20
2023-03-11T16:39:59.366Z,10.80
2023-03-11T16:45:03.916Z,10.60
2023-03-11T16:50:07.014Z,10.40
2023-03-11T16:55:09.379Z,9.90
2023-03-11T17:00:12.310Z,9.70
2023-03-11T17:05:14.433Z,9.70
2023-03-11T17:10:16.637Z,9.70
2023-03-11T17:15:18.765Z,9.20
2023-03-11T17:20:21.797Z,9.10
2023-03-11T17:25:24.172Z,9.00
2023-03-11T17:30:36.353Z,8.80
2023-03-11T17:35:39.072Z,8.50
2023-03-11T17:40:41.176Z,8.40
2023-03-11T17:45:43.170Z,8.10
2023-03-11T17:50:45.231Z,8.20
2023-03-11T17:55:47.255Z,7.80
2023-03-11T18:00:49.321Z,7.80
2023-03-11T18:05:58.557Z,7.30
2023-03-11T18:11:05.054Z,7.30
2023-03-11T18:16:14.429Z,6.90
2023-03-11T18:21:36.751Z,6.70
2023-03-11T18:26:38.796Z,6.50
2023-03-11T18:31:40.844Z,6.40
2023-03-11T18:36:43.208Z,6.10
2023-03-11T18:41:45.289Z,6.00
2023-03-11T18:46:47.371Z,5.80
2023-03-11T18:51:49.381Z,5.70
2023-03-11T18:56:51.509Z,5.70
2023-03-11T19:01:53.625Z,5.50
2023-03-11T19:06:55.643Z,5.30
2023-03-11T19:11:57.623Z,5.20
2023-03-11T19:16:59.802Z,5.10
2023-03-11T19:22:01.906Z,5.00
2023-03-11T19:27:04.018Z,4.90
2023-03-11T19:32:06.105Z,4.90
2023-03-11T19:37:08.140Z,4.70
2023-03-11T19:42:10.238Z,4.60
2023-03-11T19:47:12.854Z,4.60
2023-03-11T19:52:15.428Z,4.50
2023-03-11T19:57:17.492Z,4.30
2023-03-11T20:02:19.565Z,4.80
2023-03-11T20:07:21.676Z,4.30
2023-03-11T20:12:23.779Z,4.10
2023-03-11T20:17:25.856Z,4.00
2023-03-11T20:22:27.826Z,4.20
2023-03-11T20:27:29.855Z,4.20
2023-03-11T20:32:31.964Z,3.90
2023-03-11T20:37:34.105Z,3.80
2023-03-11T20:42:36.276Z,3.70
2023-03-11T20:47:38.429Z,3.70
2023-03-11T20:57:43.099Z,3.70
2023-03-11T21:02:45.406Z,3.70
2023-03-11T21:07:48.545Z,3.40
2023-03-11T21:17:53.022Z,3.40
2023-03-11T21:22:55.081Z,3.50
2023-03-11T21:27:57.129Z,3.40
2023-03-11T21:32:59.182Z,3.50
2023-03-11T21:38:01.362Z,3.20
2023-03-11T21:48:08.807Z,3.30
2023-03-11T21:53:10.942Z,3.00
2023-03-11T21:58:13.605Z,3.10
2023-03-11T22:03:15.689Z,3.10
2023-03-11T22:08:17.919Z,3.00
2023-03-11T22:13:20.529Z,3.10
2023-03-11T22:18:22.640Z,3.10
2023-03-11T22:23:24.727Z,2.90
2023-03-11T22:28:27.292Z,2.90
2023-03-11T22:33:29.319Z,2.80
2023-03-11T22:38:32.189Z,3.00
2023-03-11T22:43:35.093Z,2.90
2023-03-11T22:48:37.160Z,2.90
2023-03-11T22:53:39.188Z,2.60
2023-03-11T22:58:41.961Z,2.70
2023-03-11T23:03:44.094Z,2.70
2023-03-11T23:08:46.496Z,2.60
2023-03-11T23:13:49.175Z,2.80
2023-03-11T23:18:53.042Z,2.70
2023-03-11T23:23:55.242Z,2.60
2023-03-11T23:28:58.315Z,2.60
2023-03-11T23:34:00.730Z,2.40
2023-03-11T23:39:02.782Z,2.70
2023-03-11T23:44:05.212Z,2.50
2023-03-11T23:49:07.239Z,2.60
2023-03-11T23:54:09.228Z,2.40
2023-03-11T23:59:11.406Z,2.60
